Map

Track Data

SID SEASON NUMBER BASIN SUBBASIN NAME ISO_TIME NATURE LAT LON WMO_WIND WMO_PRES WMO_AGENCY TRACK_TYPE DIST2LAND LANDFALL IFLAG USA_AGENCY USA_ATCF_ID USA_LAT USA_LON USA_RECORD USA_STATUS USA_WIND USA_PRES USA_SSHS USA_R34_NE USA_R34_SE USA_R34_SW USA_R34_NW USA_R50_NE USA_R50_SE USA_R50_SW USA_R50_NW USA_R64_NE USA_R64_SE USA_R64_SW USA_R64_NW USA_POCI USA_ROCI USA_RMW USA_EYE TOKYO_LAT TOKYO_LON TOKYO_GRADE TOKYO_WIND TOKYO_PRES TOKYO_R50_DIR TOKYO_R50_LONG TOKYO_R50_SHORT TOKYO_R30_DIR TOKYO_R30_LONG TOKYO_R30_SHORT TOKYO_LAND CMA_LAT CMA_LON CMA_CAT CMA_WIND CMA_PRES HKO_LAT HKO_LON HKO_CAT HKO_WIND HKO_PRES NEWDELHI_LAT NEWDELHI_LON NEWDELHI_GRADE NEWDELHI_WIND NEWDELHI_PRES NEWDELHI_CI NEWDELHI_DP NEWDELHI_POCI REUNION_LAT REUNION_LON REUNION_TYPE REUNION_WIND REUNION_PRES REUNION_TNUM REUNION_CI REUNION_RMW REUNION_R34_NE REUNION_R34_SE REUNION_R34_SW REUNION_R34_NW REUNION_R50_NE REUNION_R50_SE REUNION_R50_SW REUNION_R50_NW REUNION_R64_NE REUNION_R64_SE REUNION_R64_SW REUNION_R64_NW BOM_LAT BOM_LON BOM_TYPE BOM_WIND BOM_PRES BOM_TNUM BOM_CI BOM_RMW BOM_R34_NE BOM_R34_SE BOM_R34_SW BOM_R34_NW BOM_R50_NE BOM_R50_SE BOM_R50_SW BOM_R50_NW BOM_R64_NE BOM_R64_SE BOM_R64_SW BOM_R64_NW BOM_ROCI BOM_POCI BOM_EYE BOM_POS_METHOD BOM_PRES_METHOD NADI_LAT NADI_LON NADI_CAT NADI_WIND NADI_PRES WELLINGTON_LAT WELLINGTON_LON WELLINGTON_WIND WELLINGTON_PRES DS824_LAT DS824_LON DS824_STAGE DS824_WIND DS824_PRES TD9636_LAT TD9636_LON TD9636_STAGE TD9636_WIND TD9636_PRES TD9635_LAT TD9635_LON TD9635_WIND TD9635_PRES TD9635_ROCI NEUMANN_LAT NEUMANN_LON NEUMANN_CLASS NEUMANN_WIND NEUMANN_PRES MLC_LAT MLC_LON MLC_CLASS MLC_WIND MLC_PRES USA_GUST BOM_GUST BOM_GUST_PER REUNION_GUST REUNION_GUST_PER USA_SEAHGT USA_SEARAD_NE USA_SEARAD_SE USA_SEARAD_SW USA_SEARAD_NW STORM_SPEED STORM_DIR
1970041S16123 1970 18 SI WA INGRID 1970-02-09 16:00:00 NR -16.0000 123.300 1002 bom main 46 46 ______O_______ -1 -16.0000 123.300 1002 14 340
1970041S16123 1970 18 SI WA INGRID 1970-02-09 18:00:00 TS -15.5700 123.136 main 92 101 ______P_____O_ -1 -15.4550 123.053 1001 -15.8000 123.300 TC 25 1001 15 336
1970041S16123 1970 18 SI WA INGRID 1970-02-09 21:00:00 TS -14.8275 122.767 main 184 189 ______P_____P_ -1 -14.7057 122.686 999 -15.0102 122.889 TC 30 999 15 331
1970041S16123 1970 18 SI WA INGRID 1970-02-10 00:00:00 TS -14.2416 122.386 main 262 262 ______P__O__O_ -1 -14.1332 122.321 998 -14.2000 122.300 TC 35 998 -14.4000 122.500 TC 35 998 13 324
1970041S16123 1970 18 SI WA INGRID 1970-02-10 01:00:00 TS -14.1493 122.264 998 bom main 276 276 ______O__P__P_ -1 -14.0000 122.200 998 -14.2151 122.166 TC -14.2657 122.378 TC 35 997 8 299
1970041S16123 1970 18 SI WA INGRID 1970-02-10 03:00:00 TS -14.0409 122.009 main 296 296 ______P__P__P_ -1 -13.8337 121.958 -14.2452 121.900 TC -14.0949 122.143 TC 35 997 8 281
1970041S16123 1970 18 SI WA INGRID 1970-02-10 06:00:00 TS -14.0254 121.633 main 312 312 ______P__P__O_ -1 -13.7858 121.596 -14.2903 121.504 TC -14.0000 121.800 TC 35 996 7 269
1970041S16123 1970 18 SI WA INGRID 1970-02-10 09:00:00 TS -14.0585 121.268 main 318 324 ______P__P__P_ -1 -13.8921 121.237 -14.3361 121.117 TC -13.9475 121.450 TC 37 995 7 261
1970041S16123 1970 18 SI WA INGRID 1970-02-10 11:00:00 TS -14.1132 121.028 bom main 337 337 ______O__P__P_ -1 -14.0000 121.000 -14.3673 120.868 TC -13.9723 121.217 TC 39 994 7 257
1970041S16123 1970 18 SI WA INGRID 1970-02-10 12:00:00 TS -14.1370 120.908 main 343 342 ______P__P__O_ -1 -14.0279 120.878 -14.3832 120.746 TC -14.0000 121.100 TC 40 994 7 255
1970041S16123 1970 18 SI WA INGRID 1970-02-10 15:00:00 TS -14.2359 120.551 main 356 356 ______P__P__P_ -1 -14.1478 120.510 -14.4324 120.393 TC -14.1274 120.750 TC 42 993 7 252
1970041S16123 1970 18 SI WA INGRID 1970-02-10 18:00:00 TS -14.3632 120.205 main 371 371 ______P__P__O_ -1 -14.3053 120.150 -14.4844 120.065 TC -14.3000 120.400 TC 45 992 7 249
1970041S16123 1970 18 SI WA INGRID 1970-02-10 21:00:00 TS -14.4922 119.867 main 386 394 ______P__P__P_ -1 -14.4792 119.808 -14.5400 119.765 TC -14.4575 120.028 TC 45 991 7 248
1970041S16123 1970 18 SI WA INGRID 1970-02-11 00:00:00 TS -14.6161 119.565 main 402 402 ______P__O__O_ -1 -14.6483 119.496 -14.6000 119.500 TC 45 990 -14.6000 119.700 TC 45 991 6 247
1970041S16123 1970 18 SI WA INGRID 1970-02-11 01:00:00 TS -14.6542 119.478 990 bom main 402 402 ______O__P__P_ -1 -14.7000 119.400 990 -14.6211 119.420 TC -14.6416 119.614 TC 45 990 5 247
1970041S16123 1970 18 SI WA INGRID 1970-02-11 03:00:00 TS -14.7168 119.324 main 418 418 ______P__P__P_ -1 -14.7704 119.231 -14.6649 119.271 TC -14.7149 119.470 TC 45 990 4 247
1970041S16123 1970 18 SI WA INGRID 1970-02-11 06:00:00 TS -14.7979 119.129 main 428 428 ______P__P__O_ -1 -14.8593 119.013 -14.7343 119.075 TC -14.8000 119.300 TC 45 990 4 247
1970041S16123 1970 18 SI WA INGRID 1970-02-11 09:00:00 TS -14.8655 118.961 main 430 430 ______P__P__P_ -1 -14.9316 118.829 -14.8074 118.904 TC -14.8575 119.150 TC 45 990 3 248
1970041S16123 1970 18 SI WA INGRID 1970-02-11 12:00:00 TS -14.9249 118.808 main 447 447 ______P__P__O_ -1 -14.9913 118.671 -14.8833 118.752 TC -14.9000 119.000 TC 45 990 3 249
1970041S16123 1970 18 SI WA INGRID 1970-02-11 15:00:00 TS -14.9821 118.648 main 460 460 ______P__P__P_ -1 -15.0424 118.533 -14.9614 118.612 TC -14.9425 118.800 TC 45 990 3 249
1970041S16123 1970 18 SI WA INGRID 1970-02-11 18:00:00 TS -15.0432 118.494 main 469 463 ______P__P__O_ -1 -15.0887 118.404 -15.0408 118.478 TC -15.0000 118.600 TC 45 990 3 244
1970041S16123 1970 18 SI WA INGRID 1970-02-11 21:00:00 TS -15.1182 118.357 main 473 477 ______P__P__P_ -1 -15.1341 118.278 -15.1206 118.343 TC -15.1000 118.450 TC 45 990 3 241
1970041S16123 1970 18 SI WA INGRID 1970-02-12 00:00:00 TS -15.1942 118.216 main 486 486 ______P__O__O_ -1 -15.1825 118.147 -15.2000 118.200 TC 45 990 -15.2000 118.300 TC 45 990 3 243
1970041S16123 1970 18 SI WA INGRID 1970-02-12 01:00:00 TS -15.2152 118.159 990 bom main 486 486 ______O__P__P_ -1 -15.2000 118.100 990 -15.2232 118.140 TC -15.2224 118.236 TC 45 990 4 250
1970041S16123 1970 18 SI WA INGRID 1970-02-12 03:00:00 TS -15.2566 118.033 main 501 501 ______P__P__P_ -1 -15.2429 117.980 -15.2692 118.020 TC -15.2575 118.100 TC 45 990 4 252
1970041S16123 1970 18 SI WA INGRID 1970-02-12 06:00:00 TS -15.3154 117.844 main 520 520 ______P__P__O_ -1 -15.3084 117.797 -15.3378 117.835 TC -15.3000 117.900 TC 45 990 4 251
1970041S16123 1970 18 SI WA INGRID 1970-02-12 09:00:00 TS -15.3750 117.669 main 525 525 ______P__P__P_ -1 -15.3758 117.610 -15.4068 117.647 TC -15.3425 117.750 TC 45 990 4 250
1970041S16123 1970 18 SI WA INGRID 1970-02-12 12:00:00 TS -15.4411 117.493 main 544 540 ______P__P__O_ -1 -15.4459 117.421 -15.4775 117.457 TC -15.4000 117.600 TC 45 990 4 247
1970041S16123 1970 18 SI WA INGRID 1970-02-12 15:00:00 TS -15.5235 117.301 main 548 542 ______P__P__P_ -1 -15.5195 117.230 -15.5509 117.266 TC -15.5000 117.408 TC 45 990 4 246
1970041S16123 1970 18 SI WA INGRID 1970-02-12 18:00:00 TS -15.6086 117.105 main 546 538 ______P__P__O_ -1 -15.5973 117.039 -15.6284 117.076 TC -15.6000 117.200 TC 45 990 4 247
1970041S16123 1970 18 SI WA INGRID 1970-02-12 21:00:00 TS -15.6804 116.909 main 540 535 ______P__P__P_ -1 -15.6802 116.849 -15.7110 116.886 TC -15.6500 116.992 TC 45 990 4 248
1970041S16123 1970 18 SI WA INGRID 1970-02-13 00:00:00 TS -15.7563 116.721 main 535 535 ______P__O__O_ -1 -15.7690 116.662 -15.8000 116.700 TC 45 990 -15.7000 116.800 TC 45 990 4 247
1970041S16123 1970 18 SI WA INGRID 1970-02-13 01:00:00 TS -15.7817 116.665 990 bom main 535 535 ______O__P__P_ -1 -15.8000 116.600 990 -15.8201 116.649 TC -15.7250 116.747 TC 45 989 3 243
1970041S16123 1970 18 SI WA INGRID 1970-02-13 03:00:00 TS -15.8304 116.570 main 537 526 ______P__P__P_ -1 -15.8466 116.507 -15.8597 116.552 TC -15.7850 116.650 TC 47 989 3 240
1970041S16123 1970 18 SI WA INGRID 1970-02-13 06:00:00 TS -15.9130 116.428 main 526 515 ______P__P__O_ -1 -15.9181 116.376 -15.9210 116.409 TC -15.9000 116.500 TC 50 988 3 238
1970041S16123 1970 18 SI WA INGRID 1970-02-13 09:00:00 TS -16.0121 116.271 main 516 506 ______P__P__P_ -1 -15.9956 116.246 -15.9907 116.266 TC -16.0500 116.300 TC 52 986 4 236
1970041S16123 1970 18 SI WA INGRID 1970-02-13 12:00:00 TS -16.1198 116.108 main 507 496 ______P__P__O_ -1 -16.0838 116.108 -16.0756 116.115 TC -16.2000 116.100 TC 55 985 4 235
1970041S16123 1970 18 SI WA INGRID 1970-02-13 15:00:00 TS -16.2256 115.951 main 497 488 ______P__P__P_ -1 -16.1872 115.954 -16.1823 115.950 TC -16.3075 115.950 TC 55 984 4 235
1970041S16123 1970 18 SI WA INGRID 1970-02-13 18:00:00 TS -16.3426 115.779 main 490 473 ______P__P__O_ -1 -16.3103 115.773 -16.3175 115.764 TC -16.4000 115.800 TC 55 983 4 235
1970041S16123 1970 18 SI WA INGRID 1970-02-13 21:00:00 TS -16.4769 115.577 main 473 465 ______P__P__P_ -1 -16.4578 115.558 -16.4878 115.550 TC -16.4850 115.622 TC 57 981 5 235
1970041S16123 1970 18 SI WA INGRID 1970-02-14 00:00:00 TS -16.6447 115.333 main 471 460 ______P__O__O_ -1 -16.6341 115.298 -16.7000 115.300 TC 60 980 -16.6000 115.400 TC 60 980 6 235
1970041S16123 1970 18 SI WA INGRID 1970-02-14 01:00:00 TS -16.7062 115.234 980 bom main 464 457 ______O__P__P_ -1 -16.7000 115.200 980 -16.7685 115.186 TC -16.6500 115.317 TC 60 980 7 239
1970041S16123 1970 18 SI WA INGRID 1970-02-14 03:00:00 TS -16.8278 115.012 main 461 449 ______P__P__P_ -1 -16.7968 114.968 -16.9167 114.939 TC -16.7699 115.130 TC 60 980 8 239
1970041S16123 1970 18 SI WA INGRID 1970-02-14 06:00:00 TS -17.0446 114.640 main 459 445 ______P__P__O_ -1 -16.9649 114.584 -17.1689 114.536 TC -17.0000 114.800 TC 60 980 9 237
1970041S16123 1970 18 SI WA INGRID 1970-02-14 09:00:00 TS -17.3084 114.231 main 453 441 ______P__P__P_ -1 -17.1810 114.171 -17.4593 114.107 TC -17.2850 114.415 TC 60 980 10 234
1970041S16123 1970 18 SI WA INGRID 1970-02-14 12:00:00 TS -17.6197 113.807 main 446 434 ______P__P__O_ -1 -17.4678 113.749 -17.7912 113.671 TC -17.6000 114.000 TC 60 980 10 231
1970041S16123 1970 18 SI WA INGRID 1970-02-14 15:00:00 TS -17.9570 113.393 main 434 431 ______P__P__P_ -1 -17.8483 113.334 -18.1677 113.245 TC -17.8549 113.600 TC 62 979 11 228
1970041S16123 1970 18 SI WA INGRID 1970-02-14 16:00:00 TS -18.0854 113.258 980 bom main 431 405 ______O__P__P_ -1 -18.0000 113.200 980 -18.3037 113.108 TC -17.9525 113.466 TC 63 979 11 222
1970041S16123 1970 18 SI WA INGRID 1970-02-14 18:00:00 TS -18.3810 112.991 main 405 365 ______P__P__O_ -1 -18.3506 112.927 978 -18.5923 112.845 TC -18.2000 113.200 TC 65 979 13 217
1970041S16123 1970 18 SI WA INGRID 1970-02-14 21:00:00 TS -18.9249 112.601 main 365 321 ______P__P__P_ -1 -18.9512 112.534 977 -19.0685 112.491 TC -18.7551 112.778 TC 65 977 13 211
1970041S16123 1970 18 SI WA INGRID 1970-02-15 00:00:00 TS -19.5297 112.265 main 321 309 ______P__O__O_ -1 -19.5891 112.195 975 -19.6000 112.200 TC 65 975 -19.4000 112.400 TC 65 976 14 207
1970041S16123 1970 18 SI WA INGRID 1970-02-15 01:00:00 TS -19.7330 112.166 975 bom main 309 289 ______O__P__P_ -1 -19.8000 112.100 975 -19.7886 112.110 TC 65 974 -19.6104 112.289 TC 66 975 13 203
1970041S16123 1970 18 SI WA INGRID 1970-02-15 03:00:00 TS -20.1462 111.992 main 289 261 ______P__P__P_ -1 -20.2246 111.926 973 -20.1841 111.953 TC 67 972 -20.0299 112.097 TC 70 973 13 198
1970041S16123 1970 18 SI WA INGRID 1970-02-15 06:00:00 TS -20.7416 111.813 main 264 253 ______P__O__O_ -1 -20.8247 111.740 970 -20.8000 111.800 TC 70 970 -20.6000 111.900 TC 75 971 12 195
1970041S16123 1970 18 SI WA INGRID 1970-02-15 07:00:00 TS -20.9157 111.770 970 bom main 253 248 ______O__P__P_ -1 -21.0000 111.700 970 -20.9937 111.757 TC -20.7535 111.852 TC 75 970 10 192
1970041S16123 1970 18 SI WA INGRID 1970-02-15 09:00:00 TS -21.2104 111.699 main 248 225 ______P__P__P_ -1 -21.2332 111.600 970 -21.3755 111.701 TC -21.0224 111.797 TC 75 970 8 187
1970041S16123 1970 18 SI WA INGRID 1970-02-15 12:00:00 TS -21.6124 111.679 main 225 196 ______P__P__O_ -1 -21.4952 111.532 970 -21.9421 111.705 TC -21.4000 111.800 TC 75 970 8 176
1970041S16123 1970 18 SI WA INGRID 1970-02-15 15:00:00 TS -22.0410 111.756 main 196 190 ______P__P__P_ -1 -21.8343 111.623 970 -22.5139 111.828 TC -21.7748 111.819 TC 75 970 9 168
1970041S16123 1970 18 SI WA INGRID 1970-02-15 16:00:00 TS -22.2104 111.818 970 bom main 190 164 ______O__P__P_ -1 -22.0000 111.700 970 -22.7081 111.899 TC -21.9232 111.855 TC 75 970 14 158
1970041S16123 1970 18 SI WA INGRID 1970-02-15 18:00:00 TS -22.6696 112.027 main 164 111 ______P__P__O_ -1 -22.6038 111.992 970 -23.1049 112.089 TC -22.3000 112.000 TC 75 970 17 154
1970041S16123 1970 18 SI WA INGRID 1970-02-15 21:00:00 TS -23.5040 112.501 main 111 32 ______P__P__P_ -1 -23.6427 112.580 970 -23.7291 112.506 TC -23.1401 112.417 TC 75 970 19 150
1970041S16123 1970 18 SI WA INGRID 1970-02-16 00:00:00 TS -24.3372 113.084 main 32 23 ______P__O__O_ -1 -24.5117 113.152 970 -24.4000 113.100 TC 70 970 -24.1000 113.000 TC 75 970 19 147
1970041S16123 1970 18 SI WA INGRID 1970-02-16 01:00:00 TS -24.5662 113.272 970 bom main 23 0 ______O__P__P_ -1 -24.7000 113.300 970 4 -24.6361 113.341 TC -24.3624 113.175 TC 73 970 16 141
1970041S16123 1970 18 SI WA INGRID 1970-02-16 02:50:00 TS -24.9407 113.620 970 bom main 0 0 ______O__P__P_ -1 -24.9000 113.500 970 -25.0851 113.837 TC -24.8369 113.523 TC 70 970 16 140
1970041S16123 1970 18 SI WA INGRID 1970-02-16 03:00:00 TS -24.9818 113.657 main 0 0 ______P__P__P_ -1 -24.9371 113.530 970 -25.1269 113.885 TC -24.8814 113.557 TC 70 971 25 141
1970041S16123 1970 18 SI WA INGRID 1970-02-16 06:00:00 TS -25.9565 114.522 main 0 0 ______P__P__O_ -1 -26.1659 114.416 973 -25.9036 114.850 TC -25.8000 114.300 TC 65 972 27 142
1970041S16123 1970 18 SI WA INGRID 1970-02-16 07:00:00 TS -26.3662 114.872 975 bom main 0 0 ______O__P__P_ -1 -26.7000 114.800 975 -26.1718 115.209 TC -26.2267 114.606 TC 63 973 32 142
1970041S16123 1970 18 SI WA INGRID 1970-02-16 09:00:00 TS -27.2301 115.623 main 0 0 ______P__P__P_ -1 -27.7988 115.573 978 -26.7197 115.977 TC -27.1717 115.319 TC 60 976 33 141
1970041S16123 1970 18 SI WA INGRID 1970-02-16 10:00:00 TS -27.6487 116.035 980 bom main 0 0 ______O__P__P_ -1 -28.3000 116.000 980 -26.9986 116.385 TC -27.6476 115.721 TC 58 977 32 134
1970041S16123 1970 18 SI WA INGRID 1970-02-16 12:00:00 TS -28.3481 116.915 main 0 0 ______P__P__O_ -1 -28.9803 116.899 981 -27.5641 117.246 TC -28.5000 116.600 TC 55 980 30 126
1970041S16123 1970 18 SI WA INGRID 1970-02-16 15:00:00 TS -29.1020 118.348 main 0 0 ______P__P__P_ -1 -29.5542 118.381 983 -28.4253 118.636 TC -29.3265 118.028 TC 50 982 29 120
1970041S16123 1970 18 SI WA INGRID 1970-02-16 16:00:00 TS -29.3162 118.855 984 bom main 0 0 ______O__P__P_ -1 -29.7000 118.900 984 -28.7142 119.123 TC -29.5345 118.541 TC 48 982 30 116
1970041S16123 1970 18 SI WA INGRID 1970-02-16 18:00:00 TS -29.7608 119.904 main 0 0 ______P__P__O_ -1 -30.0079 119.965 985 -29.2922 120.125 TC -29.9000 119.600 TC 45 984 31 115
1970041S16123 1970 18 SI WA INGRID 1970-02-16 21:00:00 TS -30.3796 121.529 main 0 0 ______P__P__P_ -1 -30.5090 121.620 987 -30.1538 121.688 TC -30.4115 121.233 TC 40 986 31 113
1970041S16123 1970 18 SI WA INGRID 1970-02-17 00:00:00 TS -30.9892 123.212 main 0 0 ______P__O__O_ -1 -31.0283 123.325 989 -31.0000 123.300 TC 45 990 -30.9000 122.900 TC 35 988 33 112
1970041S16123 1970 18 SI WA INGRID 1970-02-17 01:00:00 NR -31.2000 123.900 990 bom main 0 ______O_______ -1 -31.2000 123.900 990 TC TC 37 110

About IBTrACS Database

This database is a web-friendly format of International Best Track Archive for Climate Stewardship (IBTrACS), a global best track data archive curated by NOAA dating back to 1842.

Updated: 2021-10-08